sensor_id;sensor_type;location;lat;lon;timestamp;pressure;altitude;pressure_sealevel;temperature;humidity
32456;BME280;18912;43.270;27.942;2023-03-19T00:01:59;98620.13;;;11.22;71.07
32456;BME280;18912;43.270;27.942;2023-03-19T00:04:25;98630.25;;;11.48;70.09
32456;BME280;18912;43.270;27.942;2023-03-19T00:06:51;98629.06;;;11.64;69.57
32456;BME280;18912;43.270;27.942;2023-03-19T00:09:17;98631.44;;;11.39;70.41
32456;BME280;18912;43.270;27.942;2023-03-19T00:11:43;98630.38;;;11.34;70.40
32456;BME280;18912;43.270;27.942;2023-03-19T00:14:08;98633.53;;;11.09;71.96
32456;BME280;18912;43.270;27.942;2023-03-19T00:16:34;98637.50;;;11.75;69.42
32456;BME280;18912;43.270;27.942;2023-03-19T00:19:01;98624.25;;;12.00;68.01
32456;BME280;18912;43.270;27.942;2023-03-19T00:21:26;98624.56;;;11.37;70.36
32456;BME280;18912;43.270;27.942;2023-03-19T00:23:52;98617.84;;;10.98;71.83
32456;BME280;18912;43.270;27.942;2023-03-19T00:26:18;98620.63;;;11.39;70.78
32456;BME280;18912;43.270;27.942;2023-03-19T00:28:43;98620.56;;;10.98;71.38
32456;BME280;18912;43.270;27.942;2023-03-19T00:31:11;98614.22;;;11.47;70.41
32456;BME280;18912;43.270;27.942;2023-03-19T00:33:38;98602.63;;;11.25;70.24
32456;BME280;18912;43.270;27.942;2023-03-19T00:36:04;98606.53;;;11.16;70.74
32456;BME280;18912;43.270;27.942;2023-03-19T00:38:30;98600.41;;;11.35;70.59
32456;BME280;18912;43.270;27.942;2023-03-19T00:40:55;98589.19;;;11.04;71.93
32456;BME280;18912;43.270;27.942;2023-03-19T00:43:21;98598.41;;;11.16;71.63
32456;BME280;18912;43.270;27.942;2023-03-19T00:45:47;98601.28;;;11.08;71.87
32456;BME280;18912;43.270;27.942;2023-03-19T00:48:13;98601.19;;;10.95;72.26
32456;BME280;18912;43.270;27.942;2023-03-19T00:50:38;98592.09;;;11.02;71.61
32456;BME280;18912;43.270;27.942;2023-03-19T00:53:04;98597.22;;;11.25;70.86
32456;BME280;18912;43.270;27.942;2023-03-19T00:55:30;98607.44;;;11.29;70.90
32456;BME280;18912;43.270;27.942;2023-03-19T00:57:55;98593.59;;;11.11;70.42
32456;BME280;18912;43.270;27.942;2023-03-19T01:00:21;98597.09;;;11.40;70.28
32456;BME280;18912;43.270;27.942;2023-03-19T01:02:47;98598.53;;;11.36;69.60
32456;BME280;18912;43.270;27.942;2023-03-19T01:05:13;98608.38;;;11.50;69.60
32456;BME280;18912;43.270;27.942;2023-03-19T01:07:39;98608.75;;;11.87;68.00
32456;BME280;18912;43.270;27.942;2023-03-19T01:10:05;98599.16;;;11.72;68.34
32456;BME280;18912;43.270;27.942;2023-03-19T01:12:31;98605.38;;;11.32;69.47
32456;BME280;18912;43.270;27.942;2023-03-19T01:14:57;98599.28;;;11.64;68.02
32456;BME280;18912;43.270;27.942;2023-03-19T01:17:22;98597.25;;;11.66;68.15
32456;BME280;18912;43.270;27.942;2023-03-19T01:19:48;98594.41;;;11.46;68.50
32456;BME280;18912;43.270;27.942;2023-03-19T01:22:14;98596.13;;;11.54;68.67
32456;BME280;18912;43.270;27.942;2023-03-19T01:24:41;98592.47;;;11.68;68.17
32456;BME280;18912;43.270;27.942;2023-03-19T01:27:06;98592.06;;;11.37;68.85
32456;BME280;18912;43.270;27.942;2023-03-19T01:29:32;98593.53;;;11.80;67.46
32456;BME280;18912;43.270;27.942;2023-03-19T01:31:58;98598.88;;;11.60;67.77
32456;BME280;18912;43.270;27.942;2023-03-19T01:34:23;98594.78;;;11.84;67.06
32456;BME280;18912;43.270;27.942;2023-03-19T01:36:49;98599.19;;;11.38;69.00
32456;BME280;18912;43.270;27.942;2023-03-19T01:39:14;98602.66;;;11.66;68.13
32456;BME280;18912;43.270;27.942;2023-03-19T01:41:40;98607.53;;;11.83;67.51
32456;BME280;18912;43.270;27.942;2023-03-19T01:44:41;98609.00;;;11.99;66.67
32456;BME280;18912;43.270;27.942;2023-03-19T01:47:17;98613.38;;;11.87;66.66
32456;BME280;18912;43.270;27.942;2023-03-19T01:49:46;98606.22;;;11.73;67.65
32456;BME280;18912;43.270;27.942;2023-03-19T01:52:14;98603.75;;;11.44;67.93
32456;BME280;18912;43.270;27.942;2023-03-19T01:54:39;98607.09;;;11.05;70.39
32456;BME280;18912;43.270;27.942;2023-03-19T01:57:08;98599.53;;;10.94;70.21
32456;BME280;18912;43.270;27.942;2023-03-19T01:59:54;98606.25;;;11.04;70.43
32456;BME280;18912;43.270;27.942;2023-03-19T02:02:26;98608.41;;;11.56;69.15
32456;BME280;18912;43.270;27.942;2023-03-19T02:04:57;98610.28;;;11.49;68.73
32456;BME280;18912;43.270;27.942;2023-03-19T02:07:25;98609.19;;;11.09;70.21
32456;BME280;18912;43.270;27.942;2023-03-19T02:09:52;98613.88;;;11.28;70.24
32456;BME280;18912;43.270;27.942;2023-03-19T02:12:18;98593.84;;;11.16;69.89
32456;BME280;18912;43.270;27.942;2023-03-19T02:14:43;98623.28;;;11.67;68.51
32456;BME280;18912;43.270;27.942;2023-03-19T02:17:09;98617.56;;;11.49;68.92
32456;BME280;18912;43.270;27.942;2023-03-19T02:19:57;98619.56;;;11.40;69.35
32456;BME280;18912;43.270;27.942;2023-03-19T02:22:28;98619.53;;;11.68;68.59
32456;BME280;18912;43.270;27.942;2023-03-19T02:25:01;98620.81;;;11.72;67.83
32456;BME280;18912;43.270;27.942;2023-03-19T02:27:26;98619.16;;;11.77;68.10
32456;BME280;18912;43.270;27.942;2023-03-19T02:29:52;98615.66;;;11.83;67.35
32456;BME280;18912;43.270;27.942;2023-03-19T02:32:17;98631.16;;;11.62;68.77
32456;BME280;18912;43.270;27.942;2023-03-19T02:34:43;98618.50;;;11.69;68.10
32456;BME280;18912;43.270;27.942;2023-03-19T02:37:24;98629.03;;;11.57;68.59
32456;BME280;18912;43.270;27.942;2023-03-19T02:39:56;98632.88;;;11.76;68.14
32456;BME280;18912;43.270;27.942;2023-03-19T02:42:25;98628.44;;;11.62;68.13
32456;BME280;18912;43.270;27.942;2023-03-19T02:44:52;98632.66;;;11.02;71.01
32456;BME280;18912;43.270;27.942;2023-03-19T02:47:17;98632.03;;;11.35;69.52
32456;BME280;18912;43.270;27.942;2023-03-19T02:49:43;98636.97;;;11.24;69.35
32456;BME280;18912;43.270;27.942;2023-03-19T02:52:09;98625.53;;;11.22;69.90
32456;BME280;18912;43.270;27.942;2023-03-19T02:54:35;98638.91;;;11.03;70.58
32456;BME280;18912;43.270;27.942;2023-03-19T02:57:00;98638.50;;;11.34;69.83
32456;BME280;18912;43.270;27.942;2023-03-19T02:59:26;98644.59;;;11.83;68.14
32456;BME280;18912;43.270;27.942;2023-03-19T03:01:52;98640.53;;;10.97;70.98
32456;BME280;18912;43.270;27.942;2023-03-19T03:04:17;98646.91;;;11.11;71.07
32456;BME280;18912;43.270;27.942;2023-03-19T03:06:43;98635.38;;;11.02;71.21
32456;BME280;18912;43.270;27.942;2023-03-19T03:09:09;98645.81;;;11.40;69.82
32456;BME280;18912;43.270;27.942;2023-03-19T03:11:36;98644.13;;;11.39;69.42
32456;BME280;18912;43.270;27.942;2023-03-19T03:14:01;98643.91;;;10.99;71.15
32456;BME280;18912;43.270;27.942;2023-03-19T03:16:27;98643.47;;;10.96;71.75
32456;BME280;18912;43.270;27.942;2023-03-19T03:18:52;98627.25;;;11.30;69.56
32456;BME280;18912;43.270;27.942;2023-03-19T03:21:18;98648.25;;;11.00;71.39
32456;BME280;18912;43.270;27.942;2023-03-19T03:23:46;98647.88;;;11.03;70.68
32456;BME280;18912;43.270;27.942;2023-03-19T03:26:12;98653.09;;;11.05;70.42
32456;BME280;18912;43.270;27.942;2023-03-19T03:28:38;98656.69;;;10.84;71.63
32456;BME280;18912;43.270;27.942;2023-03-19T03:31:03;98654.31;;;11.30;70.41
32456;BME280;18912;43.270;27.942;2023-03-19T03:33:29;98660.69;;;10.46;72.79
32456;BME280;18912;43.270;27.942;2023-03-19T03:35:54;98669.94;;;10.58;72.72
32456;BME280;18912;43.270;27.942;2023-03-19T03:38:20;98665.28;;;10.73;72.46
32456;BME280;18912;43.270;27.942;2023-03-19T03:40:51;98678.63;;;10.96;71.44
32456;BME280;18912;43.270;27.942;2023-03-19T03:43:18;98678.22;;;10.99;70.42
32456;BME280;18912;43.270;27.942;2023-03-19T03:45:45;98665.47;;;10.93;70.76
32456;BME280;18912;43.270;27.942;2023-03-19T03:48:11;98682.00;;;11.04;70.37
32456;BME280;18912;43.270;27.942;2023-03-19T03:50:37;98682.44;;;11.08;70.60
32456;BME280;18912;43.270;27.942;2023-03-19T03:53:02;98679.00;;;11.20;70.00
32456;BME280;18912;43.270;27.942;2023-03-19T03:55:28;98684.88;;;11.30;69.19
32456;BME280;18912;43.270;27.942;2023-03-19T03:57:54;98677.81;;;11.02;70.55
32456;BME280;18912;43.270;27.942;2023-03-19T04:00:20;98679.81;;;11.49;68.31
32456;BME280;18912;43.270;27.942;2023-03-19T04:02:45;98689.44;;;11.23;69.39
32456;BME280;18912;43.270;27.942;2023-03-19T04:05:11;98671.41;;;11.37;68.63
32456;BME280;18912;43.270;27.942;2023-03-19T04:07:37;98680.31;;;11.31;68.36
32456;BME280;18912;43.270;27.942;2023-03-19T04:10:03;98672.34;;;11.23;68.70
32456;BME280;18912;43.270;27.942;2023-03-19T04:12:28;98673.88;;;11.32;68.25
32456;BME280;18912;43.270;27.942;2023-03-19T04:14:54;98677.56;;;11.24;68.23
32456;BME280;18912;43.270;27.942;2023-03-19T04:17:20;98684.66;;;11.25;68.85
32456;BME280;18912;43.270;27.942;2023-03-19T04:19:45;98687.53;;;11.52;67.68
32456;BME280;18912;43.270;27.942;2023-03-19T04:22:11;98683.72;;;11.40;68.03
32456;BME280;18912;43.270;27.942;2023-03-19T04:24:36;98683.91;;;11.66;67.26
32456;BME280;18912;43.270;27.942;2023-03-19T04:27:02;98678.66;;;11.64;67.19
32456;BME280;18912;43.270;27.942;2023-03-19T04:29:28;98688.22;;;11.32;68.23
32456;BME280;18912;43.270;27.942;2023-03-19T04:31:53;98695.66;;;11.52;67.63
32456;BME280;18912;43.270;27.942;2023-03-19T04:34:19;98688.34;;;11.80;66.81
32456;BME280;18912;43.270;27.942;2023-03-19T04:36:45;98695.47;;;11.25;68.55
32456;BME280;18912;43.270;27.942;2023-03-19T04:39:10;98693.59;;;11.54;68.00
32456;BME280;18912;43.270;27.942;2023-03-19T04:41:36;98698.50;;;11.71;67.23
32456;BME280;18912;43.270;27.942;2023-03-19T04:44:01;98679.88;;;11.62;67.27
32456;BME280;18912;43.270;27.942;2023-03-19T04:46:27;98698.53;;;11.78;66.75
32456;BME280;18912;43.270;27.942;2023-03-19T04:48:52;98704.56;;;11.46;67.91
32456;BME280;18912;43.270;27.942;2023-03-19T04:51:18;98705.41;;;11.74;66.83
32456;BME280;18912;43.270;27.942;2023-03-19T04:53:46;98696.41;;;11.39;67.54
32456;BME280;18912;43.270;27.942;2023-03-19T04:56:12;98696.28;;;11.54;68.00
32456;BME280;18912;43.270;27.942;2023-03-19T04:58:41;98692.88;;;11.66;67.11
32456;BME280;18912;43.270;27.942;2023-03-19T05:01:06;98704.91;;;11.64;66.98
32456;BME280;18912;43.270;27.942;2023-03-19T05:03:32;98695.91;;;11.97;66.29
32456;BME280;18912;43.270;27.942;2023-03-19T05:05:57;98694.25;;;11.96;65.75
32456;BME280;18912;43.270;27.942;2023-03-19T05:08:22;98697.56;;;11.92;66.19
32456;BME280;18912;43.270;27.942;2023-03-19T05:10:48;98688.72;;;12.17;65.21
32456;BME280;18912;43.270;27.942;2023-03-19T05:13:13;98703.97;;;12.25;64.67
32456;BME280;18912;43.270;27.942;2023-03-19T05:15:43;98699.78;;;12.23;64.96
32456;BME280;18912;43.270;27.942;2023-03-19T05:18:09;98697.31;;;12.34;64.33
32456;BME280;18912;43.270;27.942;2023-03-19T05:20:35;98695.47;;;12.54;63.51
32456;BME280;18912;43.270;27.942;2023-03-19T05:23:01;98694.78;;;12.26;64.13
32456;BME280;18912;43.270;27.942;2023-03-19T05:25:27;98696.81;;;12.11;64.48
32456;BME280;18912;43.270;27.942;2023-03-19T05:27:54;98698.53;;;12.25;64.25
32456;BME280;18912;43.270;27.942;2023-03-19T05:30:20;98691.72;;;11.95;64.59
32456;BME280;18912;43.270;27.942;2023-03-19T05:32:46;98698.94;;;12.15;64.40
32456;BME280;18912;43.270;27.942;2023-03-19T05:35:12;98700.78;;;12.15;64.26
32456;BME280;18912;43.270;27.942;2023-03-19T05:37:38;98702.94;;;12.39;63.70
32456;BME280;18912;43.270;27.942;2023-03-19T05:40:05;98702.81;;;12.67;62.65
32456;BME280;18912;43.270;27.942;2023-03-19T05:42:31;98705.94;;;12.57;62.64
32456;BME280;18912;43.270;27.942;2023-03-19T05:44:56;98696.56;;;12.79;62.30
32456;BME280;18912;43.270;27.942;2023-03-19T05:47:22;98712.84;;;12.92;62.36
32456;BME280;18912;43.270;27.942;2023-03-19T05:49:47;98706.97;;;12.82;62.25
32456;BME280;18912;43.270;27.942;2023-03-19T05:52:13;98709.22;;;12.46;62.99
32456;BME280;18912;43.270;27.942;2023-03-19T05:54:38;98699.06;;;12.81;62.26
32456;BME280;18912;43.270;27.942;2023-03-19T05:57:05;98714.06;;;12.77;61.90
32456;BME280;18912;43.270;27.942;2023-03-19T05:59:32;98700.28;;;12.65;62.33
32456;BME280;18912;43.270;27.942;2023-03-19T06:01:57;98707.41;;;12.79;61.94
32456;BME280;18912;43.270;27.942;2023-03-19T06:04:23;98705.38;;;13.21;61.07
32456;BME280;18912;43.270;27.942;2023-03-19T06:06:48;98710.16;;;13.19;60.84
32456;BME280;18912;43.270;27.942;2023-03-19T06:09:14;98698.47;;;12.98;60.03
32456;BME280;18912;43.270;27.942;2023-03-19T06:11:40;98710.75;;;12.94;60.21
32456;BME280;18912;43.270;27.942;2023-03-19T06:14:07;98718.13;;;13.20;59.47
32456;BME280;18912;43.270;27.942;2023-03-19T06:16:32;98711.59;;;12.69;60.44
32456;BME280;18912;43.270;27.942;2023-03-19T06:18:58;98726.59;;;12.84;60.18
32456;BME280;18912;43.270;27.942;2023-03-19T06:21:24;98722.47;;;12.15;61.74
32456;BME280;18912;43.270;27.942;2023-03-19T06:23:56;98715.34;;;12.07;61.81
32456;BME280;18912;43.270;27.942;2023-03-19T06:26:23;98720.28;;;12.38;60.52
32456;BME280;18912;43.270;27.942;2023-03-19T06:28:48;98724.13;;;12.16;60.62
32456;BME280;18912;43.270;27.942;2023-03-19T06:31:14;98729.47;;;12.50;60.28
32456;BME280;18912;43.270;27.942;2023-03-19T06:33:39;98724.81;;;11.84;61.56
32456;BME280;18912;43.270;27.942;2023-03-19T06:36:06;98723.63;;;12.47;60.15
32456;BME280;18912;43.270;27.942;2023-03-19T06:38:31;98722.94;;;12.25;60.39
32456;BME280;18912;43.270;27.942;2023-03-19T06:40:57;98722.56;;;12.41;60.50
32456;BME280;18912;43.270;27.942;2023-03-19T06:43:22;98726.53;;;12.45;60.34
32456;BME280;18912;43.270;27.942;2023-03-19T06:45:48;98732.25;;;12.09;60.27
32456;BME280;18912;43.270;27.942;2023-03-19T06:48:13;98733.81;;;12.38;60.23
32456;BME280;18912;43.270;27.942;2023-03-19T06:50:40;98732.22;;;12.70;59.49
32456;BME280;18912;43.270;27.942;2023-03-19T06:53:06;98735.94;;;12.49;60.15
32456;BME280;18912;43.270;27.942;2023-03-19T06:55:32;98733.63;;;12.46;60.04
32456;BME280;18912;43.270;27.942;2023-03-19T06:57:58;98744.97;;;12.82;59.30
32456;BME280;18912;43.270;27.942;2023-03-19T07:00:23;98740.56;;;12.75;59.06
32456;BME280;18912;43.270;27.942;2023-03-19T07:02:49;98747.09;;;13.00;58.47
32456;BME280;18912;43.270;27.942;2023-03-19T07:05:15;98750.41;;;12.82;58.62
32456;BME280;18912;43.270;27.942;2023-03-19T07:07:40;98750.47;;;12.35;59.38
32456;BME280;18912;43.270;27.942;2023-03-19T07:10:06;98757.47;;;12.64;59.24
32456;BME280;18912;43.270;27.942;2023-03-19T07:12:33;98760.31;;;12.36;59.70
32456;BME280;18912;43.270;27.942;2023-03-19T07:14:58;98758.25;;;12.51;59.93
32456;BME280;18912;43.270;27.942;2023-03-19T07:17:24;98760.34;;;12.49;60.28
32456;BME280;18912;43.270;27.942;2023-03-19T07:19:50;98754.53;;;12.65;59.73
32456;BME280;18912;43.270;27.942;2023-03-19T07:22:16;98765.72;;;12.36;59.95
32456;BME280;18912;43.270;27.942;2023-03-19T07:24:42;98768.72;;;12.67;59.16
32456;BME280;18912;43.270;27.942;2023-03-19T07:27:07;98766.78;;;12.48;58.70
32456;BME280;18912;43.270;27.942;2023-03-19T07:29:33;98759.91;;;12.46;59.44
32456;BME280;18912;43.270;27.942;2023-03-19T07:31:58;98759.88;;;12.39;59.55
32456;BME280;18912;43.270;27.942;2023-03-19T07:34:24;98761.69;;;12.92;58.43
32456;BME280;18912;43.270;27.942;2023-03-19T07:36:50;98764.47;;;13.19;57.35
32456;BME280;18912;43.270;27.942;2023-03-19T07:39:17;98757.47;;;12.77;58.00
32456;BME280;18912;43.270;27.942;2023-03-19T07:41:43;98754.00;;;13.02;57.79
32456;BME280;18912;43.270;27.942;2023-03-19T07:44:12;98761.75;;;13.45;56.84
32456;BME280;18912;43.270;27.942;2023-03-19T07:46:37;98761.75;;;13.38;57.48
32456;BME280;18912;43.270;27.942;2023-03-19T07:49:03;98764.59;;;13.89;56.09
32456;BME280;18912;43.270;27.942;2023-03-19T07:51:28;98770.91;;;13.70;56.05
32456;BME280;18912;43.270;27.942;2023-03-19T07:53:54;98780.53;;;13.72;55.90
32456;BME280;18912;43.270;27.942;2023-03-19T07:56:19;98772.53;;;12.92;57.18
32456;BME280;18912;43.270;27.942;2023-03-19T07:58:45;98783.28;;;13.20;57.16
32456;BME280;18912;43.270;27.942;2023-03-19T08:01:10;98769.06;;;13.57;56.38
32456;BME280;18912;43.270;27.942;2023-03-19T08:03:36;98746.47;;;13.57;56.05
32456;BME280;18912;43.270;27.942;2023-03-19T08:06:03;98770.94;;;13.63;56.68
32456;BME280;18912;43.270;27.942;2023-03-19T08:08:28;98771.16;;;13.36;56.33
32456;BME280;18912;43.270;27.942;2023-03-19T08:10:54;98764.66;;;13.63;56.77
32456;BME280;18912;43.270;27.942;2023-03-19T08:13:19;98768.44;;;13.42;57.03
32456;BME280;18912;43.270;27.942;2023-03-19T08:15:45;98773.19;;;13.86;56.14
32456;BME280;18912;43.270;27.942;2023-03-19T08:18:10;98767.50;;;14.00;56.31
32456;BME280;18912;43.270;27.942;2023-03-19T08:20:36;98770.13;;;14.27;55.36
32456;BME280;18912;43.270;27.942;2023-03-19T08:23:02;98769.97;;;14.28;55.40
32456;BME280;18912;43.270;27.942;2023-03-19T08:25:27;98773.75;;;14.14;55.07
32456;BME280;18912;43.270;27.942;2023-03-19T08:27:57;98770.34;;;14.38;54.85
32456;BME280;18912;43.270;27.942;2023-03-19T08:30:22;98759.25;;;14.40;54.21
32456;BME280;18912;43.270;27.942;2023-03-19T08:32:48;98760.94;;;14.78;54.41
32456;BME280;18912;43.270;27.942;2023-03-19T08:35:14;98762.63;;;14.73;54.62
32456;BME280;18912;43.270;27.942;2023-03-19T08:37:40;98760.16;;;15.27;53.18
32456;BME280;18912;43.270;27.942;2023-03-19T08:40:06;98757.66;;;15.26;52.86
32456;BME280;18912;43.270;27.942;2023-03-19T08:42:32;98760.69;;;15.18;53.71
32456;BME280;18912;43.270;27.942;2023-03-19T08:44:58;98763.44;;;15.67;52.82
32456;BME280;18912;43.270;27.942;2023-03-19T08:47:23;98748.19;;;15.84;52.12
32456;BME280;18912;43.270;27.942;2023-03-19T08:49:50;98740.53;;;16.11;51.63
32456;BME280;18912;43.270;27.942;2023-03-19T08:52:16;98738.94;;;15.36;51.48
32456;BME280;18912;43.270;27.942;2023-03-19T08:54:42;98754.13;;;15.25;52.12
32456;BME280;18912;43.270;27.942;2023-03-19T08:57:08;98757.63;;;15.81;52.04
32456;BME280;18912;43.270;27.942;2023-03-19T08:59:33;98764.28;;;15.85;51.33
32456;BME280;18912;43.270;27.942;2023-03-19T09:01:59;98767.84;;;15.37;51.46
32456;BME280;18912;43.270;27.942;2023-03-19T09:04:24;98767.25;;;15.35;51.59
32456;BME280;18912;43.270;27.942;2023-03-19T09:06:50;98750.09;;;15.77;51.70
32456;BME280;18912;43.270;27.942;2023-03-19T09:09:20;98769.19;;;15.28;51.77
32456;BME280;18912;43.270;27.942;2023-03-19T09:11:47;98768.44;;;15.39;51.70
32456;BME280;18912;43.270;27.942;2023-03-19T09:14:13;98762.75;;;15.47;51.48
32456;BME280;18912;43.270;27.942;2023-03-19T09:16:41;98765.84;;;15.75;51.05
32456;BME280;18912;43.270;27.942;2023-03-19T09:19:08;98752.09;;;15.45;51.08
32456;BME280;18912;43.270;27.942;2023-03-19T09:21:35;98761.28;;;14.88;51.80
32456;BME280;18912;43.270;27.942;2023-03-19T09:24:01;98760.28;;;14.83;52.40
32456;BME280;18912;43.270;27.942;2023-03-19T09:26:26;98752.81;;;15.03;52.38
32456;BME280;18912;43.270;27.942;2023-03-19T09:28:52;98757.97;;;15.18;51.97
32456;BME280;18912;43.270;27.942;2023-03-19T09:31:17;98758.38;;;15.15;52.34
32456;BME280;18912;43.270;27.942;2023-03-19T09:33:43;98746.88;;;15.13;52.23
32456;BME280;18912;43.270;27.942;2023-03-19T09:36:08;98751.06;;;15.40;52.15
32456;BME280;18912;43.270;27.942;2023-03-19T09:38:34;98747.69;;;15.69;51.48
32456;BME280;18912;43.270;27.942;2023-03-19T09:44:03;98752.69;;;15.72;51.45
32456;BME280;18912;43.270;27.942;2023-03-19T09:46:39;98741.75;;;15.97;51.14
32456;BME280;18912;43.270;27.942;2023-03-19T09:54:40;98735.44;;;15.96;50.97
32456;BME280;18912;43.270;27.942;2023-03-19T09:57:09;98734.22;;;16.46;50.50
32456;BME280;18912;43.270;27.942;2023-03-19T09:59:34;98734.50;;;16.56;50.37
32456;BME280;18912;43.270;27.942;2023-03-19T10:15:07;98730.88;;;16.62;49.63
32456;BME280;18912;43.270;27.942;2023-03-19T10:17:57;98729.75;;;16.34;49.73
32456;BME280;18912;43.270;27.942;2023-03-19T10:20:56;98728.13;;;16.62;49.13
32456;BME280;18912;43.270;27.942;2023-03-19T10:26:16;98731.44;;;16.83;48.37
32456;BME280;18912;43.270;27.942;2023-03-19T10:28:45;98723.75;;;16.43;49.12
32456;BME280;18912;43.270;27.942;2023-03-19T10:31:25;98731.75;;;16.09;49.88
32456;BME280;18912;43.270;27.942;2023-03-19T10:34:04;98729.78;;;16.16;49.91
32456;BME280;18912;43.270;27.942;2023-03-19T10:36:35;98725.16;;;16.52;49.65
32456;BME280;18912;43.270;27.942;2023-03-19T10:39:01;98715.75;;;16.48;49.31
32456;BME280;18912;43.270;27.942;2023-03-19T10:44:34;98713.13;;;16.83;49.05
32456;BME280;18912;43.270;27.942;2023-03-19T10:47:12;98713.97;;;16.83;48.78
32456;BME280;18912;43.270;27.942;2023-03-19T10:49:39;98715.28;;;16.81;48.20
32456;BME280;18912;43.270;27.942;2023-03-19T10:52:08;98709.91;;;16.45;49.24
32456;BME280;18912;43.270;27.942;2023-03-19T10:54:42;98700.97;;;16.56;49.22
32456;BME280;18912;43.270;27.942;2023-03-19T10:57:21;98704.38;;;16.93;48.51
32456;BME280;18912;43.270;27.942;2023-03-19T10:59:47;98703.94;;;16.66;48.13
32456;BME280;18912;43.270;27.942;2023-03-19T11:02:23;98697.09;;;16.27;48.79
32456;BME280;18912;43.270;27.942;2023-03-19T11:07:32;98690.13;;;16.79;48.97
32456;BME280;18912;43.270;27.942;2023-03-19T11:09:58;98686.06;;;16.81;48.21
32456;BME280;18912;43.270;27.942;2023-03-19T11:12:34;98694.34;;;16.45;49.01
32456;BME280;18912;43.270;27.942;2023-03-19T11:15:02;98684.06;;;16.29;49.86
32456;BME280;18912;43.270;27.942;2023-03-19T11:17:45;98679.13;;;16.56;48.99
32456;BME280;18912;43.270;27.942;2023-03-19T11:22:40;98672.97;;;17.02;47.90
32456;BME280;18912;43.270;27.942;2023-03-19T11:28:15;98667.09;;;17.51;46.96
32456;BME280;18912;43.270;27.942;2023-03-19T11:34:07;98659.00;;;18.19;45.81
32456;BME280;18912;43.270;27.942;2023-03-19T11:44:43;98659.47;;;18.27;45.76
32456;BME280;18912;43.270;27.942;2023-03-19T11:52:31;98648.47;;;17.99;45.62
32456;BME280;18912;43.270;27.942;2023-03-19T12:30:42;98633.06;;;18.78;44.30
32456;BME280;18912;43.270;27.942;2023-03-19T12:35:53;98634.09;;;18.60;44.11
32456;BME280;18912;43.270;27.942;2023-03-19T12:38:39;98635.28;;;17.96;45.32
32456;BME280;18912;43.270;27.942;2023-03-19T12:41:32;98641.63;;;18.25;45.22
32456;BME280;18912;43.270;27.942;2023-03-19T12:46:52;98633.06;;;18.21;45.03
32456;BME280;18912;43.270;27.942;2023-03-19T12:49:36;98628.75;;;18.65;45.53
32456;BME280;18912;43.270;27.942;2023-03-19T12:52:35;98631.25;;;17.99;45.11
32456;BME280;18912;43.270;27.942;2023-03-19T12:55:08;98633.16;;;18.26;45.52
32456;BME280;18912;43.270;27.942;2023-03-19T12:57:46;98620.94;;;18.17;45.85
32456;BME280;18912;43.270;27.942;2023-03-19T13:02:54;98625.66;;;18.61;44.84
32456;BME280;18912;43.270;27.942;2023-03-19T13:05:30;98630.78;;;18.58;44.75
32456;BME280;18912;43.270;27.942;2023-03-19T13:10:38;98623.31;;;18.53;44.19
32456;BME280;18912;43.270;27.942;2023-03-19T13:15:51;98615.34;;;17.61;46.16
32456;BME280;18912;43.270;27.942;2023-03-19T13:23:29;98614.97;;;18.20;44.72
32456;BME280;18912;43.270;27.942;2023-03-19T13:25:57;98616.09;;;18.08;45.29
32456;BME280;18912;43.270;27.942;2023-03-19T13:28:33;98611.41;;;17.80;46.00
32456;BME280;18912;43.270;27.942;2023-03-19T13:31:15;98618.47;;;17.18;46.58
32456;BME280;18912;43.270;27.942;2023-03-19T13:33:50;98603.66;;;17.89;46.40
32456;BME280;18912;43.270;27.942;2023-03-19T13:36:17;98614.72;;;17.82;45.90
32456;BME280;18912;43.270;27.942;2023-03-19T13:38:46;98614.97;;;17.81;45.23
32456;BME280;18912;43.270;27.942;2023-03-19T13:44:17;98611.59;;;18.02;45.44
32456;BME280;18912;43.270;27.942;2023-03-19T13:46:46;98605.66;;;17.93;45.41
32456;BME280;18912;43.270;27.942;2023-03-19T13:49:29;98599.25;;;18.27;44.62
32456;BME280;18912;43.270;27.942;2023-03-19T13:54:44;98587.81;;;18.02;46.71
32456;BME280;18912;43.270;27.942;2023-03-19T13:59:43;98591.88;;;17.88;45.15
32456;BME280;18912;43.270;27.942;2023-03-19T14:07:41;98575.19;;;18.01;45.27
32456;BME280;18912;43.270;27.942;2023-03-19T14:10:16;98572.94;;;18.26;45.04
32456;BME280;18912;43.270;27.942;2023-03-19T14:12:44;98563.06;;;17.97;45.34
32456;BME280;18912;43.270;27.942;2023-03-19T14:15:16;98573.13;;;17.80;45.77
32456;BME280;18912;43.270;27.942;2023-03-19T14:17:53;98561.50;;;17.73;45.78
32456;BME280;18912;43.270;27.942;2023-03-19T14:20:26;98565.22;;;17.55;46.41
32456;BME280;18912;43.270;27.942;2023-03-19T14:26:00;98562.38;;;17.39;46.75
32456;BME280;18912;43.270;27.942;2023-03-19T14:31:21;98560.38;;;17.23;46.83
32456;BME280;18912;43.270;27.942;2023-03-19T14:34:12;98559.47;;;17.68;46.10
32456;BME280;18912;43.270;27.942;2023-03-19T14:36:44;98559.75;;;17.55;45.90
32456;BME280;18912;43.270;27.942;2023-03-19T14:39:19;98562.53;;;16.98;46.78
32456;BME280;18912;43.270;27.942;2023-03-19T14:41:48;98560.59;;;17.33;46.14
32456;BME280;18912;43.270;27.942;2023-03-19T14:52:22;98565.56;;;16.25;49.03
32456;BME280;18912;43.270;27.942;2023-03-19T14:55:12;98568.28;;;16.25;49.12
32456;BME280;18912;43.270;27.942;2023-03-19T14:57:38;98570.50;;;16.46;48.61
32456;BME280;18912;43.270;27.942;2023-03-19T15:00:20;98567.53;;;16.07;48.97
32456;BME280;18912;43.270;27.942;2023-03-19T15:02:50;98566.94;;;15.86;48.85
32456;BME280;18912;43.270;27.942;2023-03-19T15:05:27;98569.00;;;15.73;50.12
32456;BME280;18912;43.270;27.942;2023-03-19T15:07:57;98570.50;;;15.87;49.35
32456;BME280;18912;43.270;27.942;2023-03-19T15:10:31;98566.06;;;15.74;49.74